Login

ROBERTO25256
1 activity; - Last training unit 25/05/2014
25/05/2014 Show to everybody Ceasa Bike Palombara 26.9 787 02:42:27 9.93 Km\h OLYMPIA 29er NITRO
23/05/2014 Show to everybody activity_505431646 30.92 293 01:28:03 21.07 Km\h OLYMPIA 29er NITRO
21/05/2014 Show to everybody Colle Alto, Quintigliolo, Via degli Orti, Tivoli, Monte Catillo 29.86 464 01:54:27 15.65 Km\h OLYMPIA 29er NITRO
14/05/2014 Show to everybody carcibove montecelio palombara sp44 carcibove 28.13 662 01:52:04 15.06 Km\h OLYMPIA 29er NITRO
11/05/2014 Show to everybody Poggio Moiano 14.46 513 01:31:45 9.46 Km\h OLYMPIA 29er NITRO
08/05/2014 Show to everybody Carcibove Montecelio Palombara Carcibove 27.33 654 01:50:18 14.87 Km\h OLYMPIA 29er NITRO
04/05/2014 Show to everybody PassoCorese Borgo S.Maria Fara Toffia 38.58 744 02:41:57 14.29 Km\h OLYMPIA 29er NITRO
02/05/2014 Show to everybody Carcibove Montecelio Palombara Marcellina, Via Monteflavio 40.46 631 02:12:43 18.29 Km\h OLYMPIA 29er NITRO
30/04/2014 Show to everybody UPGRADE: guarnitura Aerozine SL + sellino- Via degli orti - V 38.18 337 01:47:52 21.24 Km\h OLYMPIA 29er NITRO
27/04/2014 Show to everybody Passo Corese - Fara Sabina CDS al contrario.... 31.95 495 02:12:35 14.46 Km\h OLYMPIA 29er NITRO
25/04/2014 Show to everybody Colli della Sabina 2014 - Il corto - carro scopa 36.47 573 02:46:40 13.13 Km\h OLYMPIA 29er NITRO
20/04/2014 Show to everybody Carcibove - Montecelio - Palombara - Sp44- Montecelio 33.94 831 02:16:10 14.95 Km\h OLYMPIA 29er NITRO
15/04/2014 Show to everybody Salita Carcibove-Montecelio- SP44b(via dei 5 sassi)-Palombara 29.57 676 01:58:10 15.02 Km\h OLYMPIA 29er NITRO
13/04/2014 Show to everybody CDS 2014 - Mancato giro Lungo 41.61 797 03:18:01 12.61 Km\h OLYMPIA 29er NITRO
10/04/2014 Show to everybody activity_477044914 28.63 669 01:51:38 15.39 Km\h OLYMPIA 29er NITRO
06/04/2014 Show to everybody activity_474862481 39.1 588 02:58:06 13.17 Km\h OLYMPIA 29er NITRO
02/04/2014 Show to everybody activity_472374666 29.28 334 01:31:44 19.15 Km\h OLYMPIA 29er NITRO
30/03/2014 Show to everybody activity_470106075 37.55 579 02:22:31 15.81 Km\h OLYMPIA 29er NITRO
28/03/2014 Show to everybody activity_468926899 46.58 551 02:31:26 18.46 Km\h OLYMPIA 29er NITRO
19/03/2014 Show to everybody activity_463831548 40.56 714 02:31:20 16.08 Km\h OLYMPIA 29er NITRO
16/03/2014 Show to everybody activity_462012080 26.78 740 02:39:23 10.08 Km\h OLYMPIA 29er NITRO
09/03/2014 Show to everybody activity_458015094 36.15 654 02:59:39 12.07 Km\h OLYMPIA 29er NITRO
05/03/2014 Show to everybody activity_455637496 43.61 508 02:17:23 19.04 Km\h OLYMPIA 29er NITRO
02/03/2014 Show to everybody activity_454207748 36.87 632 02:21:52 15.59 Km\h OLYMPIA 29er NITRO
19/02/2014 Show to everybody activity_448908653 32.61 364 01:47:09 18.26 Km\h OLYMPIA 29er NITRO
16/02/2014 Show to everybody activity_446431180 47.36 443 02:48:04 16.91 Km\h OLYMPIA 29er NITRO
13/02/2014 Show to everybody activity_446431525 12.58 153 00:50:51 14.85 Km\h OLYMPIA 29er NITRO
06/02/2014 Show to everybody activity_442731092 27.35 68 01:17:16 21.24 Km\h OLYMPIA 29er NITRO
13/01/2014 Show to everybody activity_429384082 29.41 506 01:54:19 15.44 Km\h OLYMPIA 29er NITRO
11/01/2014 Show to everybody activity_428220806 36.87 397 02:00:44 18.32 Km\h OLYMPIA 29er NITRO
08/01/2014 Show to everybody activity_426672341 26.27 460 01:42:21 15.4 Km\h OLYMPIA 29er NITRO
06/01/2014 Show to everybody activity_425716192 27.55 471 01:50:23 14.97 Km\h OLYMPIA 29er NITRO
04/01/2014 Show to everybody activity_425716221 36.8 182 02:00:40 18.3 Km\h OLYMPIA 29er NITRO
12/05/2013 Show to everybody Osservatorio Monte Tancia 28.91 744 02:43:06 10.63 Km\h OLYMPIA 29er NITRO
09/05/2013 Show to everybody Strada San Pastore, Tivoli, San Polo dei Cavalieri 37.13 584 02:01:56 18.27 Km\h OLYMPIA 29er NITRO
07/05/2013 Show to everybody Carcibove Montecelio Palombara 27.6 469 01:29:54 18.42 Km\h
07/05/2013 Show to everybody Carcibove, Montecelio, Palombara 26.29 503 00:42:10 37.41 Km\h OLYMPIA 29er NITRO
01/05/2013 Show to everybody Tancia 29.03 865 02:54:23 9.99 Km\h
28/04/2013 Show to everybody Oasi del Farfa - Farfa 52.24 496 03:04:00 17.04 Km\h
21/04/2013 Show to everybody XCO San Gregorio da Sassola 24 669 02:16:52 10.52 Km\h
19/04/2013 Show to everybody La Botte Tivoli 43.72 503 02:27:19 17.81 Km\h
14/04/2013 Show to everybody GF Argentario 24.72 647 02:14:44 11.01 Km\h
11/04/2013 Show to everybody Palombara 32.37 518 01:44:03 18.67 Km\h
09/04/2013 Show to everybody Quintigliolo 28.3 250 01:26:31 19.63 Km\h
03/04/2013 Show to everybody Passo corese fara 33.59 245 01:36:50 20.81 Km\h
01/04/2013 Show to everybody Monte Catillo con Stefanino 34.34 603 02:55:33 11.74 Km\h
30/03/2013 Show to everybody Fara Sabina - Stefanino con Acido Lattico 35.52 609 02:42:42 13.1 Km\h
24/03/2013 Show to everybody Giro con Mauro e Gianni 32.54 333 02:05:34 15.55 Km\h
17/03/2013 Show to everybody Monte Catillo con Andrea Carbonetti & C. 41.68 766 03:41:42 11.28 Km\h
16/03/2013 Show to everybody Battesimo per Stefanino 19.21 128 01:17:35 14.86 Km\h
10/03/2013 Show to everybody San Polo 45.38 726 02:31:48 17.93 Km\h
08/03/2013 Show to everybody MArcellina Montecelio 39.08 574 02:07:12 18.43 Km\h
03/03/2013 Show to everybody LA botte Colle Alto 29.28 389 01:43:59 16.89 Km\h
17/02/2013 Show to everybody passo corese Montorio 41.62 775 02:29:30 16.7 Km\h
10/02/2013 Show to everybody MF Giuncano 24.16 652 02:16:20 10.63 Km\h
03/02/2013 Show to everybody CDS il Lungo 41.6 787 03:06:42 13.37 Km\h
01/02/2013 Show to everybody Montecelio Palombara 31.74 713 02:03:46 15.39 Km\h
27/01/2013 Show to everybody CDS il Corto 34.3 589 02:30:13 13.7 Km\h
27/01/2013 Show to everybody Passo Corese FAra Sabina 34.38 690 02:02:11 16.88 Km\h
25/01/2013 Show to everybody Palombara Montecelio salitona 32.72 779 02:09:52 15.11 Km\h
23/01/2013 Show to everybody allenamento collefiorito 20.34 51 00:57:27 21.24 Km\h
20/01/2013 Show to everybody Passo Corese FAra 28.53 566 02:06:39 13.51 Km\h
13/01/2013 Show to everybody BAttesimo Olympia 27.51 333 01:32:00 17.94 Km\h
08/01/2013 Show to everybody Tivoli 38.57 293 02:08:11 18.06 Km\h
06/01/2013 Show to everybody Prova CDS corto 28.92 662 02:17:22 12.63 Km\h
29/12/2012 Show to everybody Condotte Bocchignano 57.3 880 03:42:01 15.49 Km\h
Training units 0
Kilometers 0 Km
Vertical gain 0 mt
Hours of riding 00:00:00
Average speed 0 Km/h
average HR 105
Points 35
Live Tracking »

OLYMPIA 29er NITRO 76:17:13 1182.6 Km

 
If you stop following this users you will not be able to compare your trainings with his

Now you follow this users and you can compare your trainings


MTB-Forum.it | 2012-2020 Training Camp v.1.6 rev 05